createdAt,value
2023-05-18T00:02:51.251Z,101206.60
2023-05-18T00:07:54.406Z,101201.80
2023-05-18T00:13:00.012Z,101198.40
2023-05-18T00:18:03.355Z,101201.40
2023-05-18T00:23:10.951Z,101201.00
2023-05-18T00:28:14.052Z,101206.20
2023-05-18T00:33:17.103Z,101206.80
2023-05-18T00:38:20.272Z,101202.00
2023-05-18T00:43:23.196Z,101210.00
2023-05-18T00:48:26.221Z,101213.40
2023-05-18T00:53:30.271Z,101221.40
2023-05-18T00:58:33.356Z,101215.40
2023-05-18T01:03:39.081Z,101229.60
2023-05-18T01:08:44.138Z,101225.40
2023-05-18T01:14:04.209Z,101232.40
2023-05-18T01:19:40.158Z,101240.00
2023-05-18T01:24:49.019Z,101243.60
2023-05-18T01:29:56.472Z,101241.20
2023-05-18T01:34:59.399Z,101239.00
2023-05-18T01:40:05.635Z,101247.00
2023-05-18T01:45:21.609Z,101247.40
2023-05-18T01:50:39.349Z,101240.40
2023-05-18T01:55:54.816Z,101239.60
2023-05-18T02:00:58.170Z,101243.80
2023-05-18T02:06:01.237Z,101254.00
2023-05-18T02:11:04.569Z,101257.40
2023-05-18T02:16:08.456Z,101260.00
2023-05-18T02:21:13.920Z,101263.80
2023-05-18T02:26:17.026Z,101263.40
2023-05-18T02:31:20.296Z,101263.40
2023-05-18T02:36:23.643Z,101263.20
2023-05-18T02:41:27.084Z,101267.60
2023-05-18T02:46:30.286Z,101268.40
2023-05-18T02:51:33.358Z,101265.60
2023-05-18T02:56:36.517Z,101277.00
2023-05-18T03:01:41.328Z,101282.40
2023-05-18T03:06:46.703Z,101286.60
2023-05-18T03:11:50.692Z,101290.40
2023-05-18T03:16:54.636Z,101301.00
2023-05-18T03:22:00.577Z,101302.60
2023-05-18T03:27:04.532Z,101307.60
2023-05-18T03:32:08.002Z,101311.20
2023-05-18T03:37:11.215Z,101320.60
2023-05-18T03:42:14.307Z,101328.60
2023-05-18T03:47:17.656Z,101335.80
2023-05-18T03:52:22.563Z,101343.60
2023-05-18T03:57:25.753Z,101347.20
2023-05-18T04:02:28.958Z,101346.80
2023-05-18T04:07:32.873Z,101360.40
2023-05-18T04:12:35.944Z,101358.00
2023-05-18T04:17:45.564Z,101365.60
2023-05-18T04:22:49.354Z,101377.40
2023-05-18T04:27:52.396Z,101375.40
2023-05-18T04:32:58.501Z,101378.80
2023-05-18T04:38:02.781Z,101390.40
2023-05-18T04:43:07.138Z,101393.60
2023-05-18T04:48:11.008Z,101390.40
2023-05-18T04:53:14.161Z,101400.20
2023-05-18T04:58:17.483Z,101402.00
2023-05-18T05:03:20.536Z,101405.20
2023-05-18T05:08:23.846Z,101407.00
2023-05-18T05:13:27.519Z,101409.40
2023-05-18T05:18:30.632Z,101414.40
2023-05-18T05:23:33.669Z,101409.00
2023-05-18T05:29:36.523Z,101409.60
2023-05-18T05:34:41.148Z,101411.00
2023-05-18T05:39:55.086Z,101413.00
2023-05-18T05:44:58.246Z,101414.40
2023-05-18T05:50:01.270Z,101417.60
2023-05-18T05:55:05.184Z,101425.80
2023-05-18T06:00:11.432Z,101429.60
2023-05-18T06:05:14.475Z,101426.60
2023-05-18T06:10:17.881Z,101423.80
2023-05-18T06:15:21.252Z,101420.00
2023-05-18T06:20:24.548Z,101423.60
2023-05-18T06:25:28.002Z,101426.60
2023-05-18T06:30:31.148Z,101430.60
2023-05-18T06:35:34.856Z,101430.80
2023-05-18T06:40:37.813Z,101434.20
2023-05-18T06:45:40.853Z,101439.20
2023-05-18T06:50:43.985Z,101442.60
2023-05-18T06:55:47.064Z,101450.20
2023-05-18T07:00:50.114Z,101448.40
2023-05-18T07:05:53.184Z,101458.20
2023-05-18T07:10:58.331Z,101464.20
2023-05-18T07:16:01.769Z,101469.20
2023-05-18T07:21:05.494Z,101470.80
2023-05-18T07:26:11.097Z,101470.60
2023-05-18T07:31:16.728Z,101474.80
2023-05-18T07:36:19.986Z,101473.20
2023-05-18T07:41:23.440Z,101474.20
2023-05-18T07:46:26.547Z,101478.00
2023-05-18T07:51:30.049Z,101481.60
2023-05-18T07:56:33.305Z,101486.40
2023-05-18T08:01:37.908Z,101497.20
2023-05-18T08:06:41.001Z,101500.60
2023-05-18T08:11:45.311Z,101495.00
2023-05-18T08:16:48.730Z,101497.80
2023-05-18T08:21:51.878Z,101498.60
2023-05-18T08:26:54.873Z,101497.20
2023-05-18T08:31:58.073Z,101495.00
2023-05-18T08:37:01.605Z,101495.40
2023-05-18T08:42:34.788Z,101493.60
2023-05-18T08:47:51.897Z,101491.80
2023-05-18T08:52:58.371Z,101504.40
2023-05-18T08:58:04.514Z,101494.60
2023-05-18T09:03:08.504Z,101498.20
2023-05-18T09:08:13.059Z,101502.60
2023-05-18T09:13:23.000Z,101500.40
2023-05-18T09:18:28.205Z,101503.20
2023-05-18T09:23:32.046Z,101500.80
2023-05-18T09:28:40.203Z,101517.00
2023-05-18T09:33:45.814Z,101510.40
2023-05-18T09:38:48.939Z,101514.80
2023-05-18T09:43:52.598Z,101504.80
2023-05-18T09:48:55.627Z,101517.00
2023-05-18T09:53:59.419Z,101512.60
2023-05-18T09:59:11.252Z,101517.20
2023-05-18T10:04:14.385Z,101509.00
2023-05-18T10:09:18.132Z,101506.80
2023-05-18T10:14:28.202Z,101509.20
2023-05-18T10:19:37.463Z,101499.40
2023-05-18T10:24:46.388Z,101502.60
2023-05-18T10:29:52.769Z,101491.20
2023-05-18T10:34:56.986Z,101494.40
2023-05-18T10:40:03.183Z,101491.20
2023-05-18T10:45:10.453Z,101495.60
2023-05-18T10:50:17.340Z,101497.80
2023-05-18T10:55:21.050Z,101483.80
2023-05-18T11:00:24.369Z,101492.20
2023-05-18T11:05:27.758Z,101492.60
2023-05-18T11:10:47.331Z,101494.80
2023-05-18T11:15:53.497Z,101486.20
2023-05-18T11:20:59.145Z,101487.00
2023-05-18T11:26:05.152Z,101490.00
2023-05-18T11:31:08.388Z,101497.00
2023-05-18T11:36:13.829Z,101489.80
2023-05-18T11:41:39.348Z,101487.80
2023-05-18T11:47:06.159Z,101493.60
2023-05-18T11:52:24.192Z,101493.20
2023-05-18T11:57:42.819Z,101487.60
2023-05-18T12:02:48.683Z,101499.40
2023-05-18T12:07:58.031Z,101486.20
2023-05-18T12:13:12.880Z,101505.80
2023-05-18T12:18:19.381Z,101484.80
2023-05-18T12:23:38.490Z,101495.20
2023-05-18T12:28:47.899Z,101504.80
2023-05-18T12:33:56.097Z,101493.60
2023-05-18T12:39:03.071Z,101498.00
2023-05-18T12:44:12.570Z,101497.40
2023-05-18T12:49:22.404Z,101502.00
2023-05-18T12:54:33.153Z,101497.80
2023-05-18T12:59:50.354Z,101500.80
2023-05-18T13:05:15.866Z,101498.80
2023-05-18T13:10:36.565Z,101491.60
2023-05-18T13:15:48.009Z,101497.40
2023-05-18T13:20:54.724Z,101488.60
2023-05-18T13:26:00.394Z,101489.00
2023-05-18T13:31:03.617Z,101490.40
2023-05-18T13:36:09.872Z,101490.20
2023-05-18T13:41:17.511Z,101490.00
2023-05-18T13:46:26.899Z,101487.40
2023-05-18T13:51:29.938Z,101492.20
2023-05-18T13:56:32.980Z,101487.40
2023-05-18T14:01:36.237Z,101482.20
2023-05-18T14:06:40.896Z,101481.00
2023-05-18T14:11:44.193Z,101489.20
2023-05-18T14:16:50.466Z,101487.40
2023-05-18T14:21:53.614Z,101489.40
2023-05-18T14:26:57.456Z,101485.00
2023-05-18T14:32:01.376Z,101479.40
2023-05-18T14:37:04.893Z,101484.20
2023-05-18T14:42:10.587Z,101474.00
2023-05-18T14:47:13.555Z,101471.00
2023-05-18T14:52:16.588Z,101483.20
2023-05-18T14:57:20.529Z,101480.60
2023-05-18T15:02:23.858Z,101473.40
2023-05-18T15:07:27.595Z,101475.00
2023-05-18T15:12:30.991Z,101472.80
2023-05-18T15:17:37.026Z,101477.40
2023-05-18T15:22:41.660Z,101479.00
2023-05-18T15:27:45.470Z,101481.20
2023-05-18T15:33:06.645Z,101478.80
2023-05-18T15:38:17.934Z,101479.80
2023-05-18T15:43:23.264Z,101471.20
2023-05-18T15:48:26.514Z,101475.80
2023-05-18T15:53:35.921Z,101467.60
2023-05-18T15:58:41.974Z,101466.40
2023-05-18T16:03:46.170Z,101470.00
2023-05-18T16:08:51.903Z,101474.40
2023-05-18T16:14:00.666Z,101476.80
2023-05-18T16:19:13.311Z,101477.80
2023-05-18T16:24:23.959Z,101486.60
2023-05-18T16:29:36.420Z,101489.60
2023-05-18T16:34:39.995Z,101488.40
2023-05-18T16:39:48.617Z,101493.00
2023-05-18T16:44:51.534Z,101491.40
2023-05-18T16:50:04.502Z,101488.80
2023-05-18T16:55:09.777Z,101496.40
2023-05-18T17:00:16.015Z,101501.40
2023-05-18T17:05:23.262Z,101501.40
2023-05-18T17:10:41.293Z,101504.40
2023-05-18T17:15:50.497Z,101508.80
2023-05-18T17:20:53.677Z,101514.20
2023-05-18T17:26:06.310Z,101514.40
2023-05-18T17:31:18.260Z,101517.40
2023-05-18T17:36:22.994Z,101520.60
2023-05-18T17:41:29.747Z,101528.40
2023-05-18T17:46:32.926Z,101527.40
2023-05-18T17:51:36.461Z,101533.20
2023-05-18T17:56:39.785Z,101538.00
2023-05-18T18:01:43.257Z,101545.20
2023-05-18T18:06:46.659Z,101548.00
2023-05-18T18:11:50.252Z,101550.20
2023-05-18T18:16:53.426Z,101549.60
2023-05-18T18:21:56.544Z,101556.80
2023-05-18T18:26:59.670Z,101563.20
2023-05-18T18:32:02.800Z,101568.00
2023-05-18T18:37:06.171Z,101575.40
2023-05-18T18:42:09.348Z,101577.20
2023-05-18T18:47:12.312Z,101579.80
2023-05-18T18:52:15.240Z,101584.80
2023-05-18T18:57:22.240Z,101591.80
2023-05-18T19:02:34.866Z,101599.60
2023-05-18T19:07:38.381Z,101610.60
2023-05-18T19:12:45.134Z,101613.40
2023-05-18T19:17:53.575Z,101622.40
2023-05-18T19:22:56.843Z,101625.00
2023-05-18T19:28:01.211Z,101614.60
2023-05-18T19:33:04.233Z,101623.00
2023-05-18T19:38:07.180Z,101623.00
2023-05-18T19:43:10.160Z,101627.20
2023-05-18T19:48:14.024Z,101636.40
2023-05-18T19:53:17.136Z,101629.00
2023-05-18T19:58:20.002Z,101631.40
2023-05-18T20:03:23.349Z,101636.00
2023-05-18T20:08:27.929Z,101641.40
2023-05-18T20:13:30.883Z,101648.20
2023-05-18T20:18:35.044Z,101648.00
2023-05-18T20:23:38.010Z,101650.40
2023-05-18T20:28:41.081Z,101658.20
2023-05-18T20:33:44.686Z,101657.00
2023-05-18T20:38:49.647Z,101664.60
2023-05-18T20:43:53.253Z,101670.60
2023-05-18T20:48:56.183Z,101671.40
2023-05-18T20:53:59.148Z,101671.60
2023-05-18T20:59:04.199Z,101679.00
2023-05-18T21:04:12.543Z,101680.80
2023-05-18T21:09:17.834Z,101681.80
2023-05-18T21:14:21.021Z,101686.20
2023-05-18T21:19:23.963Z,101686.80
2023-05-18T21:24:26.987Z,101695.00
2023-05-18T21:29:29.987Z,101698.00
2023-05-18T21:34:33.528Z,101697.20
2023-05-18T21:39:36.458Z,101692.20
2023-05-18T21:44:39.336Z,101693.00
2023-05-18T21:49:42.681Z,101693.60
2023-05-18T21:54:45.540Z,101695.00
2023-05-18T21:59:48.408Z,101694.80
2023-05-18T22:04:51.470Z,101703.00
2023-05-18T22:09:54.469Z,101695.80
2023-05-18T22:14:57.330Z,101693.00
2023-05-18T22:20:00.368Z,101689.00
2023-05-18T22:25:03.519Z,101691.20
2023-05-18T22:30:08.445Z,101697.80
2023-05-18T22:35:11.416Z,101694.60
2023-05-18T22:40:14.350Z,101689.20
2023-05-18T22:45:17.350Z,101689.40
2023-05-18T22:50:21.308Z,101680.60
2023-05-18T22:55:24.214Z,101680.00
2023-05-18T23:00:27.512Z,101684.20
2023-05-18T23:05:32.840Z,101679.80
2023-05-18T23:10:36.469Z,101681.80
2023-05-18T23:15:41.562Z,101677.60
2023-05-18T23:20:45.320Z,101677.80
2023-05-18T23:25:48.221Z,101670.60
2023-05-18T23:30:51.285Z,101668.20
2023-05-18T23:35:58.680Z,101669.80
2023-05-18T23:41:04.301Z,101670.00
2023-05-18T23:46:08.117Z,101662.60
2023-05-18T23:51:16.755Z,101660.80
2023-05-18T23:56:20.212Z,101663.00
